Time;durP1;ratioP1;P1;durP2;ratioP2;P2;SDS_P1;SDS_P2;PMS_P1;PMS_P2;Temp;Humidity;BMP_temperature;BMP_pressure;BME280_temperature;BME280_humidity;BME280_pressure;Samples;Min_cycle;Max_cycle;Signal;HPM_P1;HPM_P2
2023/05/25 00:01:08;;;;;;;19.97;11.23;;;;;;;;;;6253576;28;20040;-79
2023/05/25 00:04:09;;;;;;;14.13;10.67;;;;;;;;;;6262338;28;20594;-80
2023/05/25 00:07:09;;;;;;;23.33;12.10;;;;;;;;;;6263254;28;20029;-79
2023/05/25 00:10:10;;;;;;;21.30;13.40;;;;;;;;;;6261079;28;20014;-80
2023/05/25 00:13:10;;;;;;;23.43;13.27;;;;;;;;;;6267972;28;20013;-79
2023/05/25 00:16:10;;;;;;;21.10;10.67;;;;;;;;;;6265886;28;20024;-80
2023/05/25 00:19:11;;;;;;;24.17;13.23;;;;;;;;;;6248067;28;20112;-79
2023/05/25 00:22:11;;;;;;;21.47;11.03;;;;;;;;;;6266568;28;20032;-80
2023/05/25 00:25:11;;;;;;;21.10;12.07;;;;;;;;;;6266691;28;20013;-79
2023/05/25 00:28:12;;;;;;;22.00;13.40;;;;;;;;;;6263562;28;20014;-79
2023/05/25 00:31:12;;;;;;;22.65;11.88;;;;;;;;;;6260210;28;20056;-79
2023/05/25 00:34:12;;;;;;;25.00;13.63;;;;;;;;;;6265649;28;20032;-79
2023/05/25 00:37:13;;;;;;;21.87;14.30;;;;;;;;;;6267383;28;20472;-79
2023/05/25 00:40:14;;;;;;;20.77;13.43;;;;;;;;;;6252202;28;20009;-79
2023/05/25 00:43:14;;;;;;;24.93;14.87;;;;;;;;;;6244316;28;20009;-80
2023/05/25 00:46:14;;;;;;;20.27;13.53;;;;;;;;;;6273205;28;20048;-79
2023/05/25 00:49:15;;;;;;;25.43;15.57;;;;;;;;;;6256793;28;20475;-80
2023/05/25 00:52:16;;;;;;;25.55;15.95;;;;;;;;;;6265374;28;20403;-79
2023/05/25 00:55:18;;;;;;;21.03;14.13;;;;;;;;;;6266490;28;20013;-79
2023/05/25 00:58:23;;;;;;;23.83;14.00;;;;;;;;;;6271583;28;20360;-79
2023/05/25 01:01:24;;;;;;;21.33;12.57;;;;;;;;;;6252077;28;20387;-79
2023/05/25 01:04:27;;;;;;;17.60;11.77;;;;;;;;;;6220891;28;20141;-79
2023/05/25 01:07:29;;;;;;;22.73;15.70;;;;;;;;;;6217618;28;20018;-79
2023/05/25 01:10:35;;;;;;;25.08;14.52;;;;;;;;;;6216696;28;20030;-83
2023/05/25 01:13:37;;;;;;;21.23;14.05;;;;;;;;;;6226360;28;20708;-83
2023/05/25 01:16:37;;;;;;;24.27;14.07;;;;;;;;;;6231207;28;20029;-87
2023/05/25 01:19:39;;;;;;;25.87;16.57;;;;;;;;;;6226041;28;20018;-86
2023/05/25 01:23:02;;;;;;;24.55;15.77;;;;;;;;;;6220910;28;20408;-79
2023/05/25 01:26:07;;;;;;;28.77;17.45;;;;;;;;;;6222199;28;20535;-79
2023/05/25 01:29:07;;;;;;;23.58;16.15;;;;;;;;;;6221839;28;20057;-79
2023/05/25 01:32:08;;;;;;;22.13;14.07;;;;;;;;;;6216858;28;20104;-79
2023/05/25 01:35:08;;;;;;;22.13;16.27;;;;;;;;;;6213467;28;20421;-79
2023/05/25 01:38:09;;;;;;;26.97;14.43;;;;;;;;;;6221510;28;20503;-79
2023/05/25 01:41:09;;;;;;;25.17;14.63;;;;;;;;;;6204135;28;20022;-79
2023/05/25 01:44:10;;;;;;;21.83;13.47;;;;;;;;;;6219426;28;20014;-79
2023/05/25 01:47:20;;;;;;;22.53;14.03;;;;;;;;;;6215949;28;20466;-79
2023/05/25 01:50:42;;;;;;;28.77;15.75;;;;;;;;;;6233995;28;20018;-79
2023/05/25 01:53:44;;;;;;;26.98;14.68;;;;;;;;;;6217136;28;20018;-79
2023/05/25 01:56:46;;;;;;;23.42;14.10;;;;;;;;;;6220892;28;20389;-79
2023/05/25 01:59:48;;;;;;;22.88;14.35;;;;;;;;;;6221384;28;20464;-79
2023/05/25 02:02:49;;;;;;;20.83;13.70;;;;;;;;;;6231446;28;20049;-79
2023/05/25 02:05:49;;;;;;;24.00;15.03;;;;;;;;;;6252378;28;20017;-79
2023/05/25 02:08:50;;;;;;;22.90;14.20;;;;;;;;;;6251144;28;20013;-79
2023/05/25 02:11:50;;;;;;;24.97;15.50;;;;;;;;;;6248516;28;20017;-79
2023/05/25 02:14:50;;;;;;;26.23;15.33;;;;;;;;;;6269871;28;20419;-79
2023/05/25 02:17:50;;;;;;;22.90;15.03;;;;;;;;;;6269544;28;20032;-79
2023/05/25 02:20:51;;;;;;;27.50;15.27;;;;;;;;;;6246773;28;20499;-79
2023/05/25 02:23:52;;;;;;;28.00;15.13;;;;;;;;;;6268969;28;20013;-79
2023/05/25 02:26:53;;;;;;;27.35;16.83;;;;;;;;;;6265355;28;20526;-79
2023/05/25 02:29:53;;;;;;;25.00;15.17;;;;;;;;;;6251018;28;20026;-79
2023/05/25 02:32:53;;;;;;;24.97;16.23;;;;;;;;;;6251624;28;20073;-79
2023/05/25 02:35:54;;;;;;;24.63;16.47;;;;;;;;;;6269989;28;20057;-79
2023/05/25 02:38:54;;;;;;;27.27;16.73;;;;;;;;;;6269655;28;20114;-79
2023/05/25 02:41:54;;;;;;;25.10;17.27;;;;;;;;;;6269558;28;20045;-79
2023/05/25 02:44:55;;;;;;;27.50;17.47;;;;;;;;;;6269295;28;20032;-79
2023/05/25 02:47:55;;;;;;;23.60;16.17;;;;;;;;;;6266963;28;20549;-79
2023/05/25 02:50:55;;;;;;;25.13;17.67;;;;;;;;;;6265782;28;20017;-79
2023/05/25 02:53:55;;;;;;;38.10;20.60;;;;;;;;;;6269724;28;20175;-79
2023/05/25 02:56:56;;;;;;;40.03;23.17;;;;;;;;;;6250834;28;20108;-79
2023/05/25 02:59:56;;;;;;;35.77;20.93;;;;;;;;;;6268333;28;20450;-79
2023/05/25 03:02:56;;;;;;;37.07;20.50;;;;;;;;;;6250280;28;20083;-79
2023/05/25 03:05:56;;;;;;;28.50;17.45;;;;;;;;;;6268897;28;20016;-80
2023/05/25 03:08:56;;;;;;;29.83;17.50;;;;;;;;;;6268157;28;20028;-80
2023/05/25 03:11:57;;;;;;;30.13;18.63;;;;;;;;;;6269386;28;20035;-79
2023/05/25 03:14:57;;;;;;;26.10;19.40;;;;;;;;;;6268205;28;20021;-80
2023/05/25 03:18:00;;;;;;;24.73;15.47;;;;;;;;;;6264284;28;20484;-79
2023/05/25 03:21:00;;;;;;;22.23;15.05;;;;;;;;;;6248430;28;20017;-79
2023/05/25 03:24:00;;;;;;;21.87;15.07;;;;;;;;;;6249883;28;20013;-79
2023/05/25 03:27:00;;;;;;;25.93;15.60;;;;;;;;;;6266102;28;20388;-79
2023/05/25 03:30:01;;;;;;;25.27;16.20;;;;;;;;;;6250380;28;20021;-82
2023/05/25 03:33:01;;;;;;;22.50;14.57;;;;;;;;;;6279930;28;20059;-85
2023/05/25 03:36:06;;;;;;;21.67;14.77;;;;;;;;;;6265279;28;20029;-82
2023/05/25 03:39:08;;;;;;;26.83;17.08;;;;;;;;;;6267802;28;20047;-84
2023/05/25 03:42:09;;;;;;;29.63;17.23;;;;;;;;;;6286022;28;20080;-84
2023/05/25 03:45:09;;;;;;;24.23;16.63;;;;;;;;;;6286184;28;20018;-83
2023/05/25 03:48:09;;;;;;;26.17;15.57;;;;;;;;;;6261762;28;20013;-86
2023/05/25 03:51:10;;;;;;;25.40;15.77;;;;;;;;;;6274406;28;20534;-86
2023/05/25 03:54:10;;;;;;;23.73;15.10;;;;;;;;;;6272684;28;20075;-85
2023/05/25 03:57:11;;;;;;;23.83;13.57;;;;;;;;;;6268897;28;20057;-85
2023/05/25 04:00:12;;;;;;;21.80;13.52;;;;;;;;;;6252852;28;20017;-85
2023/05/25 04:03:12;;;;;;;22.43;14.37;;;;;;;;;;6256952;28;20044;-86
2023/05/25 04:06:12;;;;;;;23.10;14.70;;;;;;;;;;6252276;28;20055;-86
2023/05/25 04:09:13;;;;;;;22.30;14.20;;;;;;;;;;6271718;28;20542;-86
2023/05/25 04:12:13;;;;;;;24.97;14.70;;;;;;;;;;6266787;28;20017;-86
2023/05/25 04:15:13;;;;;;;19.13;12.83;;;;;;;;;;6268802;28;20560;-86
2023/05/25 04:18:14;;;;;;;21.77;14.37;;;;;;;;;;6275277;28;20896;-86
2023/05/25 04:21:15;;;;;;;19.40;12.53;;;;;;;;;;6272478;28;20026;-86
2023/05/25 04:24:15;;;;;;;17.02;10.85;;;;;;;;;;6272737;28;20089;-85
2023/05/25 04:27:15;;;;;;;20.30;13.30;;;;;;;;;;6256733;28;20025;-85
2023/05/25 04:30:16;;;;;;;17.67;11.37;;;;;;;;;;6254735;28;20112;-84
2023/05/25 04:33:16;;;;;;;17.27;11.80;;;;;;;;;;6255397;28;20537;-85
2023/05/25 04:36:16;;;;;;;22.97;14.07;;;;;;;;;;6258255;28;20025;-85
2023/05/25 04:39:17;;;;;;;23.00;12.97;;;;;;;;;;6275124;28;20024;-85
2023/05/25 04:42:17;;;;;;;20.43;12.43;;;;;;;;;;6251840;28;20092;-79
2023/05/25 04:45:20;;;;;;;19.90;13.43;;;;;;;;;;6267263;28;20476;-79
2023/05/25 04:48:20;;;;;;;18.63;11.32;;;;;;;;;;6267582;28;20021;-78
2023/05/25 04:51:21;;;;;;;23.43;13.93;;;;;;;;;;6253250;28;20052;-84
2023/05/25 04:54:23;;;;;;;21.33;13.20;;;;;;;;;;6276402;28;20016;-85
2023/05/25 04:57:23;;;;;;;18.23;12.80;;;;;;;;;;6273701;28;20025;-85
2023/05/25 05:00:23;;;;;;;23.33;12.90;;;;;;;;;;6275708;28;20369;-85
2023/05/25 05:03:24;;;;;;;24.03;14.80;;;;;;;;;;6278516;28;20041;-86
2023/05/25 05:06:24;;;;;;;22.17;14.03;;;;;;;;;;6271258;28;20487;-85
2023/05/25 05:09:24;;;;;;;22.97;14.60;;;;;;;;;;6275116;28;20021;-85
2023/05/25 05:12:25;;;;;;;25.33;14.27;;;;;;;;;;6274605;28;20028;-85
2023/05/25 05:15:25;;;;;;;23.63;15.03;;;;;;;;;;6275962;28;20017;-85
2023/05/25 05:18:27;;;;;;;22.30;14.43;;;;;;;;;;6271400;28;20095;-86
2023/05/25 05:21:28;;;;;;;;;;;;;;;;;;6252903;28;20009;-86
2023/05/25 05:24:28;;;;;;;19.48;12.52;;;;;;;;;;6274205;28;19940;-83
2023/05/25 05:27:29;;;;;;;19.15;12.80;;;;;;;;;;6281079;28;20036;-85
2023/05/25 05:30:29;;;;;;;19.83;12.47;;;;;;;;;;6279291;28;20468;-84
2023/05/25 05:33:30;;;;;;;19.30;13.50;;;;;;;;;;6287383;28;20077;-85
2023/05/25 05:36:32;;;;;;;23.63;12.90;;;;;;;;;;6263045;28;20040;-85
2023/05/25 05:39:32;;;;;;;20.50;12.95;;;;;;;;;;6280256;28;20451;-85
2023/05/25 05:42:32;;;;;;;21.83;12.35;;;;;;;;;;6282619;28;20021;-85
2023/05/25 05:45:32;;;;;;;21.70;13.53;;;;;;;;;;6262331;28;20400;-86
2023/05/25 05:48:32;;;;;;;25.17;12.80;;;;;;;;;;6278758;28;20029;-83
2023/05/25 05:51:33;;;;;;;18.73;12.80;;;;;;;;;;6280010;28;20017;-86
2023/05/25 05:54:33;;;;;;;17.00;12.00;;;;;;;;;;6277733;28;20027;-86
2023/05/25 05:57:33;;;;;;;22.00;12.37;;;;;;;;;;6263573;28;20016;-86
2023/05/25 06:00:34;;;;;;;23.30;14.03;;;;;;;;;;6256720;28;20028;-79
2023/05/25 06:03:34;;;;;;;17.77;12.83;;;;;;;;;;6269254;28;20080;-78
2023/05/25 06:06:36;;;;;;;17.50;10.90;;;;;;;;;;6246556;28;20049;-78
2023/05/25 06:09:36;;;;;;;;;;;;;;;;;;6260708;28;20047;-78
2023/05/25 06:12:36;;;;;;;18.65;10.93;;;;;;;;;;6271638;28;20379;-85
2023/05/25 06:15:37;;;;;;;16.73;11.90;;;;;;;;;;6259681;28;20021;-86
2023/05/25 06:18:37;;;;;;;17.97;12.13;;;;;;;;;;6273647;28;20070;-87
2023/05/25 06:21:37;;;;;;;19.30;12.10;;;;;;;;;;6275558;28;20115;-86
2023/05/25 06:24:37;;;;;;;24.83;12.57;;;;;;;;;;6276936;28;20013;-86
2023/05/25 06:27:39;;;;;;;18.30;11.90;;;;;;;;;;6273022;28;20033;-84
2023/05/25 06:30:39;;;;;;;19.33;11.93;;;;;;;;;;6273707;28;20025;-86
2023/05/25 06:33:39;;;;;;;23.17;12.77;;;;;;;;;;6272152;28;20067;-88
2023/05/25 06:36:40;;;;;;;19.40;11.47;;;;;;;;;;6275707;28;20039;-85
2023/05/25 06:39:41;;;;;;;20.90;11.57;;;;;;;;;;6283276;28;20012;-85
2023/05/25 06:42:42;;;;;;;17.52;11.48;;;;;;;;;;6273827;28;20021;-88
2023/05/25 06:45:43;;;;;;;17.50;9.97;;;;;;;;;;6257156;28;20025;-86
2023/05/25 06:48:44;;;;;;;16.48;11.20;;;;;;;;;;6275681;28;20024;-86
2023/05/25 06:51:47;;;;;;;16.63;11.35;;;;;;;;;;6275042;28;20024;-85
2023/05/25 06:54:51;;;;;;;22.77;12.60;;;;;;;;;;6259157;28;20024;-84
2023/05/25 06:57:51;;;;;;;20.42;12.35;;;;;;;;;;6278097;28;20036;-85
2023/05/25 07:00:52;;;;;;;21.70;13.90;;;;;;;;;;6281351;28;20043;-86
2023/05/25 07:03:52;;;;;;;22.00;14.23;;;;;;;;;;6258942;28;20065;-85
2023/05/25 07:06:53;;;;;;;21.83;13.50;;;;;;;;;;6271441;28;20029;-85
2023/05/25 07:09:53;;;;;;;24.47;13.53;;;;;;;;;;6271748;28;20028;-84
2023/05/25 07:12:53;;;;;;;27.50;15.83;;;;;;;;;;6258165;28;20105;-85
2023/05/25 07:15:55;;;;;;;23.40;15.55;;;;;;;;;;6276816;28;20092;-83
2023/05/25 07:18:55;;;;;;;20.40;13.60;;;;;;;;;;6276067;28;20037;-85
2023/05/25 07:21:55;;;;;;;21.07;14.67;;;;;;;;;;6246330;28;20116;-78
2023/05/25 07:24:55;;;;;;;19.97;13.47;;;;;;;;;;6267212;28;20024;-78
2023/05/25 07:27:55;;;;;;;25.93;15.00;;;;;;;;;;6265001;28;20078;-78
2023/05/25 07:30:56;;;;;;;18.77;12.00;;;;;;;;;;6267088;28;20033;-79
2023/05/25 07:33:56;;;;;;;21.97;13.83;;;;;;;;;;6267461;28;20108;-80
2023/05/25 07:36:56;;;;;;;21.23;14.00;;;;;;;;;;6261879;28;20017;-79
2023/05/25 07:39:57;;;;;;;20.37;13.80;;;;;;;;;;6272733;28;20020;-79
2023/05/25 07:42:57;;;;;;;18.70;13.33;;;;;;;;;;6267988;28;20027;-78
2023/05/25 07:45:57;;;;;;;22.87;14.33;;;;;;;;;;6268106;28;20327;-78
2023/05/25 07:48:58;;;;;;;20.73;14.10;;;;;;;;;;6268138;28;20024;-78
2023/05/25 07:51:58;;;;;;;20.27;12.95;;;;;;;;;;6268891;28;20547;-79
2023/05/25 07:54:59;;;;;;;23.47;13.33;;;;;;;;;;6251883;28;20037;-78
2023/05/25 07:57:59;;;;;;;23.23;12.70;;;;;;;;;;6270733;28;20555;-78
2023/05/25 08:01:00;;;;;;;22.67;12.83;;;;;;;;;;6270558;28;20023;-79
2023/05/25 08:04:00;;;;;;;22.10;13.10;;;;;;;;;;6269441;28;20041;-78
2023/05/25 08:07:01;;;;;;;22.55;14.05;;;;;;;;;;6270591;28;20302;-79
2023/05/25 08:10:02;;;;;;;20.07;13.60;;;;;;;;;;6244484;28;20025;-78
2023/05/25 08:13:02;;;;;;;18.00;12.50;;;;;;;;;;6259850;28;20017;-78
2023/05/25 08:16:02;;;;;;;22.70;12.97;;;;;;;;;;6248320;28;20104;-78
2023/05/25 08:19:03;;;;;;;17.77;11.13;;;;;;;;;;6266973;28;20033;-79
2023/05/25 08:22:03;;;;;;;18.60;12.93;;;;;;;;;;6249642;28;20008;-78
2023/05/25 08:25:05;;;;;;;18.90;12.53;;;;;;;;;;6249310;28;20028;-78
2023/05/25 08:28:05;;;;;;;22.48;13.82;;;;;;;;;;6267372;28;20395;-77
2023/05/25 08:31:05;;;;;;;20.83;13.93;;;;;;;;;;6265606;28;20033;-79
2023/05/25 08:34:06;;;;;;;22.07;15.17;;;;;;;;;;6247408;28;20063;-79
2023/05/25 08:37:06;;;;;;;20.07;14.07;;;;;;;;;;6244052;28;20434;-78
2023/05/25 08:40:06;;;;;;;22.27;15.57;;;;;;;;;;6266318;28;20475;-79
2023/05/25 08:43:07;;;;;;;24.03;15.83;;;;;;;;;;6266693;28;20017;-77
2023/05/25 08:46:07;;;;;;;24.57;15.37;;;;;;;;;;6264474;28;20075;-78
2023/05/25 08:49:08;;;;;;;22.77;15.13;;;;;;;;;;6259276;28;20021;-79
2023/05/25 08:52:18;;;;;;;24.02;15.40;;;;;;;;;;6247234;28;20026;-79
2023/05/25 08:55:19;;;;;;;27.63;18.42;;;;;;;;;;6249689;28;20531;-79
2023/05/25 08:58:22;;;;;;;24.25;15.88;;;;;;;;;;6246826;28;20025;-78
2023/05/25 09:01:24;;;;;;;29.98;19.05;;;;;;;;;;6257693;28;20083;-78
2023/05/25 09:04:26;;;;;;;27.77;18.83;;;;;;;;;;6263355;28;20076;-78
2023/05/25 09:07:27;;;;;;;22.90;15.97;;;;;;;;;;6263539;28;20112;-78
2023/05/25 09:10:28;;;;;;;26.20;17.37;;;;;;;;;;6267241;28;20052;-79
2023/05/25 09:13:28;;;;;;;26.90;17.25;;;;;;;;;;6247608;28;20083;-79
2023/05/25 09:16:30;;;;;;;24.23;16.57;;;;;;;;;;6266256;28;20771;-78
2023/05/25 09:19:30;;;;;;;22.88;15.45;;;;;;;;;;6268575;28;20021;-79
2023/05/25 09:22:30;;;;;;;22.90;16.10;;;;;;;;;;6265503;28;20432;-78
2023/05/25 09:25:31;;;;;;;27.00;16.83;;;;;;;;;;6268103;28;20025;-78
2023/05/25 09:28:31;;;;;;;20.08;14.32;;;;;;;;;;6263922;28;20024;-79
2023/05/25 09:31:32;;;;;;;20.30;14.33;;;;;;;;;;6258418;28;20384;-79
2023/05/25 09:34:35;;;;;;;21.53;14.30;;;;;;;;;;6259585;28;20483;-78
2023/05/25 09:37:36;;;;;;;17.63;13.05;;;;;;;;;;6252325;28;20901;-78
2023/05/25 09:40:36;;;;;;;23.05;15.27;;;;;;;;;;6268081;28;20024;-86
2023/05/25 09:43:37;;;;;;;25.00;17.73;;;;;;;;;;6267200;28;20018;-85
2023/05/25 09:46:38;;;;;;;26.50;19.40;;;;;;;;;;6266557;28;20585;-85
2023/05/25 09:49:39;;;;;;;26.13;18.55;;;;;;;;;;6270361;28;20009;-85
2023/05/25 09:52:40;;;;;;;29.17;18.37;;;;;;;;;;6271073;28;20020;-86
2023/05/25 09:55:40;;;;;;;28.30;19.38;;;;;;;;;;6271355;28;20033;-86
2023/05/25 09:58:42;;;;;;;29.63;21.37;;;;;;;;;;6256997;28;20101;-86
2023/05/25 10:01:43;;;;;;;28.63;20.65;;;;;;;;;;6251956;28;20145;-87
2023/05/25 10:04:43;;;;;;;;;;;;;;;;;;6268710;28;20049;-82
2023/05/25 10:07:45;;;;;;;24.98;18.95;;;;;;;;;;6259044;28;19915;-85
2023/05/25 10:10:45;;;;;;;25.05;19.60;;;;;;;;;;6272660;28;20029;-83
2023/05/25 10:13:45;;;;;;;29.80;21.77;;;;;;;;;;6249567;28;20021;-87
2023/05/25 10:16:49;;;;;;;26.83;19.73;;;;;;;;;;6249469;28;20029;-86
2023/05/25 10:19:53;;;;;;;29.63;22.95;;;;;;;;;;6266387;28;20028;-86
2023/05/25 10:23:03;;;;;;;29.25;20.42;;;;;;;;;;6255702;28;20017;-87
2023/05/25 10:26:04;;;;;;;30.25;21.08;;;;;;;;;;6264771;28;20029;-86
2023/05/25 10:29:06;;;;;;;32.67;23.65;;;;;;;;;;6273353;28;20112;-86
2023/05/25 10:32:06;;;;;;;;;;;;;;;;;;6272671;28;20032;-86
2023/05/25 10:35:07;;;;;;;26.52;20.13;;;;;;;;;;6257026;28;19935;-86
2023/05/25 10:38:08;;;;;;;34.25;21.95;;;;;;;;;;6271979;28;20047;-86
2023/05/25 10:41:10;;;;;;;34.22;21.20;;;;;;;;;;6270890;28;20390;-86
2023/05/25 10:44:10;;;;;;;29.13;19.80;;;;;;;;;;6271127;28;20048;-86
2023/05/25 10:47:11;;;;;;;30.50;19.50;;;;;;;;;;6250376;28;20164;-86
2023/05/25 10:50:18;;;;;;;27.37;17.23;;;;;;;;;;6270653;28;20021;-86
2023/05/25 10:53:19;;;;;;;23.83;18.02;;;;;;;;;;6265809;28;20530;-84
2023/05/25 10:56:20;;;;;;;28.92;16.38;;;;;;;;;;6265423;28;20017;-85
2023/05/25 10:59:24;;;;;;;27.37;16.80;;;;;;;;;;6270057;28;20446;-84
2023/05/25 11:02:28;;;;;;;30.27;16.83;;;;;;;;;;6273999;28;20409;-83
2023/05/25 11:05:30;;;;;;;29.27;16.17;;;;;;;;;;6249562;28;20017;-84
2023/05/25 11:08:47;;;;;;;33.80;15.32;;;;;;;;;;6263901;28;20086;-84
2023/05/25 11:11:48;;;;;;;25.83;16.13;;;;;;;;;;6247785;28;20021;-84
2023/05/25 11:15:17;;;;;;;22.20;15.48;;;;;;;;;;6248259;28;20537;-85
2023/05/25 11:18:18;;;;;;;23.65;16.10;;;;;;;;;;6255152;28;20045;-86
2023/05/25 11:21:22;;;;;;;25.17;16.20;;;;;;;;;;6266795;28;20365;-85
2023/05/25 11:24:22;;;;;;;23.77;16.73;;;;;;;;;;6271042;28;20021;-85
2023/05/25 11:27:23;;;;;;;24.52;16.30;;;;;;;;;;6251734;28;20031;-85
2023/05/25 11:30:26;;;;;;;23.70;16.40;;;;;;;;;;6250245;28;20104;-85
2023/05/25 11:33:27;;;;;;;25.30;16.73;;;;;;;;;;6245824;28;20029;-85
2023/05/25 11:36:30;;;;;;;22.70;15.57;;;;;;;;;;6265644;28;20033;-86
2023/05/25 11:39:30;;;;;;;21.67;16.27;;;;;;;;;;6268913;28;20112;-85
2023/05/25 11:42:31;;;;;;;20.30;16.67;;;;;;;;;;6270186;28;20479;-85
2023/05/25 11:45:36;;;;;;;26.97;19.97;;;;;;;;;;6270004;28;20539;-84
2023/05/25 11:48:36;;;;;;;25.10;18.30;;;;;;;;;;6250833;28;20032;-85
2023/05/25 11:51:36;;;;;;;27.73;18.97;;;;;;;;;;6267697;28;20054;-77
2023/05/25 11:54:39;;;;;;;27.20;19.07;;;;;;;;;;6267293;28;20510;-77
2023/05/25 11:57:40;;;;;;;29.27;19.33;;;;;;;;;;6266697;28;20029;-77
2023/05/25 12:00:40;;;;;;;26.03;19.57;;;;;;;;;;6249730;28;20056;-85
2023/05/25 12:03:41;;;;;;;27.57;20.93;;;;;;;;;;6254022;28;20045;-85
2023/05/25 12:06:41;;;;;;;28.27;20.67;;;;;;;;;;6247307;28;20111;-85
2023/05/25 12:09:41;;;;;;;25.27;18.88;;;;;;;;;;6248699;28;20095;-84
2023/05/25 12:12:41;;;;;;;20.93;17.53;;;;;;;;;;6264239;28;20025;-84
2023/05/25 12:15:43;;;;;;;24.03;19.00;;;;;;;;;;6268771;28;20021;-85
2023/05/25 12:18:43;;;;;;;24.38;18.52;;;;;;;;;;6268041;28;20146;-85
2023/05/25 12:21:44;;;;;;;25.07;18.03;;;;;;;;;;6271316;28;20029;-85
2023/05/25 12:24:44;;;;;;;25.70;18.70;;;;;;;;;;6276867;28;20021;-87
2023/05/25 12:27:48;;;;;;;25.05;16.98;;;;;;;;;;6280358;28;20037;-85
2023/05/25 12:30:49;;;;;;;27.08;18.27;;;;;;;;;;6268238;28;20033;-85
2023/05/25 12:34:05;;;;;;;25.50;17.42;;;;;;;;;;6287562;28;20025;-85
2023/05/25 12:37:17;;;;;;;24.92;17.20;;;;;;;;;;6283066;28;20033;-83
2023/05/25 12:40:18;;;;;;;20.52;15.93;;;;;;;;;;6266590;28;20021;-85
2023/05/25 12:43:18;;;;;;;18.08;13.10;;;;;;;;;;6288760;28;20021;-86
2023/05/25 12:46:26;;;;;;;16.77;12.23;;;;;;;;;;6286728;28;20116;-84
2023/05/25 12:49:31;;;;;;;16.75;12.85;;;;;;;;;;6283692;28;20057;-85
2023/05/25 12:52:35;;;;;;;17.67;12.68;;;;;;;;;;6280586;28;20025;-86
2023/05/25 12:55:36;;;;;;;17.27;13.43;;;;;;;;;;6281754;28;20029;-84
2023/05/25 12:58:36;;;;;;;15.17;11.67;;;;;;;;;;6256605;28;20025;-84
2023/05/25 13:01:36;;;;;;;17.52;12.38;;;;;;;;;;6274778;28;20021;-84
2023/05/25 13:04:37;;;;;;;13.65;11.55;;;;;;;;;;6275354;28;20085;-85
2023/05/25 13:07:37;;;;;;;15.82;12.60;;;;;;;;;;6270804;28;20064;-85
2023/05/25 13:10:37;;;;;;;16.80;12.17;;;;;;;;;;6254304;28;20166;-83
2023/05/25 13:13:38;;;;;;;17.48;12.95;;;;;;;;;;6271410;28;20074;-83
2023/05/25 13:16:38;;;;;;;16.33;11.90;;;;;;;;;;6271986;28;20052;-84
2023/05/25 13:19:39;;;;;;;12.90;10.10;;;;;;;;;;6273207;28;20403;-82
2023/05/25 13:22:40;;;;;;;11.77;8.70;;;;;;;;;;6273509;28;20025;-83
2023/05/25 13:25:41;;;;;;;12.73;9.43;;;;;;;;;;6275409;28;20256;-85
2023/05/25 13:28:41;;;;;;;14.10;8.50;;;;;;;;;;6248829;28;20056;-83
2023/05/25 13:31:42;;;;;;;17.23;10.07;;;;;;;;;;6253525;28;20017;-84
2023/05/25 13:34:42;;;;;;;14.02;10.27;;;;;;;;;;6269536;28;20033;-84
2023/05/25 13:37:42;;;;;;;13.83;9.90;;;;;;;;;;6271786;28;20128;-83
2023/05/25 13:40:42;;;;;;;16.27;10.90;;;;;;;;;;6271927;28;20064;-84
2023/05/25 13:43:43;;;;;;;19.58;10.98;;;;;;;;;;6254816;28;20044;-83
2023/05/25 13:46:43;;;;;;;16.47;9.87;;;;;;;;;;6272833;28;20016;-82
2023/05/25 13:49:44;;;;;;;12.80;9.27;;;;;;;;;;6252640;28;20044;-83
2023/05/25 13:52:44;;;;;;;18.33;13.93;;;;;;;;;;6270316;28;20021;-84
2023/05/25 13:55:44;;;;;;;22.87;15.00;;;;;;;;;;6253311;28;20021;-85
2023/05/25 13:58:44;;;;;;;22.47;15.63;;;;;;;;;;6253009;28;20511;-86
2023/05/25 14:01:45;;;;;;;19.83;14.63;;;;;;;;;;6273806;28;20025;-84
2023/05/25 14:04:45;;;;;;;19.37;13.57;;;;;;;;;;6253066;28;20410;-84
2023/05/25 14:07:46;;;;;;;17.67;12.97;;;;;;;;;;6266607;28;20428;-83
2023/05/25 14:10:46;;;;;;;16.80;12.53;;;;;;;;;;6258003;28;20025;-84
2023/05/25 14:13:46;;;;;;;20.73;11.63;;;;;;;;;;6265204;28;20029;-86
2023/05/25 14:16:46;;;;;;;16.57;11.27;;;;;;;;;;6266568;28;20563;-84
2023/05/25 14:19:47;;;;;;;16.97;11.73;;;;;;;;;;6263841;28;20115;-84
2023/05/25 14:22:47;;;;;;;20.93;12.83;;;;;;;;;;6246895;28;20035;-84
2023/05/25 14:25:48;;;;;;;18.53;12.33;;;;;;;;;;6265922;28;20029;-84
2023/05/25 14:28:49;;;;;;;18.33;12.63;;;;;;;;;;6264930;28;20040;-84
2023/05/25 14:31:49;;;;;;;16.13;11.50;;;;;;;;;;6252038;28;20373;-85
2023/05/25 14:34:49;;;;;;;17.20;12.27;;;;;;;;;;6269388;28;20537;-85
2023/05/25 14:37:50;;;;;;;22.48;13.27;;;;;;;;;;6272711;28;20024;-85
2023/05/25 14:40:50;;;;;;;20.00;14.70;;;;;;;;;;6251172;28;20078;-84
2023/05/25 14:43:51;;;;;;;18.90;13.27;;;;;;;;;;6267690;28;20010;-85
2023/05/25 14:46:51;;;;;;;19.65;13.85;;;;;;;;;;6268254;28;20109;-85
2023/05/25 14:49:52;;;;;;;21.05;13.35;;;;;;;;;;6253087;28;20029;-85
2023/05/25 14:52:54;;;;;;;19.13;13.90;;;;;;;;;;6270696;28;20033;-86
2023/05/25 14:56:03;;;;;;;20.75;13.77;;;;;;;;;;6253199;28;20574;-86
2023/05/25 14:59:04;;;;;;;20.05;14.15;;;;;;;;;;6264831;28;20499;-85
2023/05/25 15:02:05;;;;;;;17.67;13.10;;;;;;;;;;6269547;28;20017;-86
2023/05/25 15:05:05;;;;;;;18.00;13.20;;;;;;;;;;6250730;28;20056;-86
2023/05/25 15:08:06;;;;;;;22.40;13.43;;;;;;;;;;6243573;28;20055;-85
2023/05/25 15:11:06;;;;;;;20.23;13.07;;;;;;;;;;6268005;28;20009;-86
2023/05/25 15:14:07;;;;;;;19.53;13.20;;;;;;;;;;6253499;28;20809;-86
2023/05/25 15:17:07;;;;;;;20.23;13.43;;;;;;;;;;6269421;28;20017;-85
2023/05/25 16:37:14;;;;;;;18.65;12.02;;;;;;;;;;6253566;28;20123;-86
2023/05/25 16:40:15;;;;;;;15.73;13.03;;;;;;;;;;6277712;28;20028;-78
2023/05/25 16:43:18;;;;;;;20.00;13.93;;;;;;;;;;6266896;28;20519;-80
2023/05/25 16:46:20;;;;;;;19.27;13.98;;;;;;;;;;6250528;28;20137;-78
2023/05/25 16:49:21;;;;;;;18.98;13.18;;;;;;;;;;6269572;28;20053;-78
2023/05/25 16:52:21;;;;;;;18.87;13.07;;;;;;;;;;6264802;28;20035;-78
2023/05/25 16:55:23;;;;;;;19.20;12.77;;;;;;;;;;6261078;28;20029;-77
2023/05/25 16:58:26;;;;;;;18.07;12.97;;;;;;;;;;6267812;28;20033;-78
2023/05/25 17:01:26;;;;;;;18.02;13.57;;;;;;;;;;6268277;28;20036;-78
2023/05/25 17:04:27;;;;;;;20.37;14.37;;;;;;;;;;6250145;28;20115;-77
2023/05/25 17:07:27;;;;;;;21.93;14.80;;;;;;;;;;6270009;28;20021;-78
2023/05/25 17:10:28;;;;;;;26.90;16.07;;;;;;;;;;6270326;28;20032;-77
2023/05/25 17:13:28;;;;;;;22.77;15.63;;;;;;;;;;6268013;28;20045;-79
2023/05/25 17:16:28;;;;;;;22.20;15.03;;;;;;;;;;6248879;28;20032;-78
2023/05/25 17:19:29;;;;;;;22.35;14.75;;;;;;;;;;6264571;28;20078;-78
2023/05/25 17:22:30;;;;;;;20.80;16.37;;;;;;;;;;6248541;28;20024;-76
2023/05/25 17:25:32;;;;;;;22.05;17.02;;;;;;;;;;6265914;28;20017;-76
2023/05/25 17:28:32;;;;;;;24.60;17.13;;;;;;;;;;6268903;28;20060;-76
2023/05/25 17:31:32;;;;;;;20.53;15.23;;;;;;;;;;6267887;28;20029;-77
2023/05/25 17:34:34;;;;;;;22.30;15.43;;;;;;;;;;6253457;28;20044;-77
2023/05/25 17:37:35;;;;;;;23.65;17.10;;;;;;;;;;6253754;28;20053;-78
2023/05/25 17:40:35;;;;;;;25.27;14.83;;;;;;;;;;6271180;28;20100;-87
2023/05/25 17:43:36;;;;;;;22.90;15.25;;;;;;;;;;6278775;28;20029;-86
2023/05/25 17:46:36;;;;;;;24.55;16.08;;;;;;;;;;6258272;28;20024;-85
2023/05/25 17:49:39;;;;;;;21.03;16.93;;;;;;;;;;6272603;28;20025;-85
2023/05/25 17:52:41;;;;;;;25.45;16.60;;;;;;;;;;6275709;28;20017;-85
2023/05/25 17:55:42;;;;;;;23.15;15.20;;;;;;;;;;6276310;28;20047;-86
2023/05/25 17:58:46;;;;;;;22.10;17.20;;;;;;;;;;6273481;28;20139;-86
2023/05/25 18:01:46;;;;;;;24.25;16.10;;;;;;;;;;6256359;28;20039;-84
2023/05/25 18:04:46;;;;;;;24.90;18.80;;;;;;;;;;6258732;28;20021;-85
2023/05/25 18:07:47;;;;;;;28.00;17.43;;;;;;;;;;6271896;28;20017;-86
2023/05/25 18:10:49;;;;;;;27.77;19.67;;;;;;;;;;6258877;28;20017;-84
2023/05/25 18:13:49;;;;;;;27.65;19.48;;;;;;;;;;6275625;28;20349;-81
2023/05/25 18:16:51;;;;;;;29.47;19.57;;;;;;;;;;6277543;28;20052;-85
2023/05/25 18:19:51;;;;;;;31.70;20.30;;;;;;;;;;6274271;28;20063;-85
2023/05/25 18:22:53;;;;;;;29.90;21.60;;;;;;;;;;6268461;28;20029;-84
2023/05/25 18:25:53;;;;;;;29.70;21.05;;;;;;;;;;6272953;28;20033;-85
2023/05/25 18:28:55;;;;;;;28.67;21.67;;;;;;;;;;6271060;28;20033;-85
2023/05/25 18:31:55;;;;;;;27.40;20.85;;;;;;;;;;6282642;28;20109;-86
2023/05/25 18:34:58;;;;;;;29.17;22.67;;;;;;;;;;6273903;28;20116;-85
2023/05/25 18:38:00;;;;;;;38.77;26.17;;;;;;;;;;6240788;28;1072532;-84
2023/05/25 18:41:00;;;;;;;39.75;28.08;;;;;;;;;;6264481;28;20032;-86
2023/05/25 18:44:01;;;;;;;41.37;28.47;;;;;;;;;;6247658;28;20090;-84
2023/05/25 18:47:01;;;;;;;34.63;26.43;;;;;;;;;;6257026;28;20419;-85
2023/05/25 18:50:01;;;;;;;34.63;25.43;;;;;;;;;;6277427;28;20490;-84
2023/05/25 18:53:03;;;;;;;34.65;21.48;;;;;;;;;;6252349;28;20028;-78